Medellin, Colombia

8:09 PM COT on July 24, 2016 (GMT -0500)
Poblado | | Change Station

Elev 5545 ft 6.21 °N, 75.56 °W | Updated 5 seconds ago

Overcast
Overcast
65.1 °F
Feels Like 65.1 °F
N
0.0
Wind Variable Wind from NW
Gusts 0.0 mph

Today
High -- | Low -- °F
--% Chance of Precip.
Yesterday
High -- | Low -- °F
Precip. -- in
Pressure 30.12 in
Visibility 6.2 miles
Clouds Scattered Clouds 1500 ft
Overcast 7000 ft
Dew Point 62 °F
Humidity 89%
Rainfall 0.00 in
Snow Depth Not available.
5:56 AM 6:21 PM
Waning Gibbous, 71% visible
METAR SKMD 242300Z 19005KT 9999 VCSH SCT015 OVC070 19/16 A3012 RMK VCSH/N/S
Pressure 30.12 in
Visibility 6.2 miles
Clouds Scattered Clouds 1500 ft
Overcast 7000 ft
Dew Point 62 °F
Humidity 89%
Rainfall 0.00 in
Snow Depth Not available.
5:56 AM 6:21 PM
Waning Gibbous, 71% visible
METAR SKMD 242300Z 19005KT 9999 VCSH SCT015 OVC070 19/16 A3012 RMK VCSH/N/S

10-Day Weather Forecast

No radar image for this location.
×

Almanac

Astronomy

Jul. 24, 2016 Rise Set
Actual Time
Civil Twilight
Nautical Twilight
Astronomical Twilight
Moon
Length of Visible Light
Length of Day
Tomorrow will be .
, % of the Moon is Illuminated

Today's Extremes

Country Highs Country Lows

Community

WunderPhotos

Upload Photos

1,927,224 photos uploaded!

WunderBlog® & News

Nearby

Air Quality

  Air Quality AQ Index Pollutant
Not available.

Snow Depth

Station Depth Elevation

Earthquake Activity

City Distance Mag. Time & Date
Minimum magnitude displayed is 2.5.

Coastal Water Temperatures

Place Temperature

Stations

Nearby Weather Stations

Station Location Temp. Windchill Dew Point Humidity Wind Precip. Elev Updated Type